createdAt,value
2018-07-20T00:01:00.222Z,18.30
2018-07-20T00:03:28.993Z,18.30
2018-07-20T00:05:59.966Z,18.20
2018-07-20T00:08:28.842Z,18.20
2018-07-20T00:10:57.661Z,18.20
2018-07-20T00:13:26.584Z,18.10
2018-07-20T00:15:56.577Z,18.10
2018-07-20T00:18:25.529Z,18.00
2018-07-20T00:20:54.270Z,18.00
2018-07-20T00:23:23.005Z,18.00
2018-07-20T00:25:51.783Z,18.00
2018-07-20T00:28:20.585Z,17.90
2018-07-20T00:30:49.453Z,17.90
2018-07-20T00:33:18.424Z,17.80
2018-07-20T00:35:47.167Z,17.80
2018-07-20T00:38:16.021Z,17.80
2018-07-20T00:40:44.817Z,17.80
2018-07-20T00:43:14.021Z,17.70
2018-07-20T00:45:42.870Z,17.70
2018-07-20T00:48:11.620Z,17.70
2018-07-20T00:50:40.410Z,17.70
2018-07-20T00:53:09.206Z,17.60
2018-07-20T00:55:38.161Z,17.60
2018-07-20T00:58:06.968Z,17.50
2018-07-20T01:00:35.758Z,17.50
2018-07-20T01:03:04.582Z,17.50
2018-07-20T01:05:33.398Z,17.40
2018-07-20T01:08:02.161Z,17.40
2018-07-20T01:10:31.057Z,17.30
2018-07-20T01:12:59.893Z,17.30
2018-07-20T01:15:28.699Z,17.30
2018-07-20T01:17:58.549Z,17.30
2018-07-20T01:20:27.397Z,17.30
2018-07-20T01:22:56.210Z,17.30
2018-07-20T01:25:24.985Z,17.20
2018-07-20T01:27:53.854Z,17.20
2018-07-20T01:30:22.898Z,17.20
2018-07-20T01:32:51.706Z,17.20
2018-07-20T01:35:20.501Z,17.10
2018-07-20T01:37:49.346Z,17.10
2018-07-20T01:40:18.207Z,17.00
2018-07-20T01:42:46.985Z,17.00
2018-07-20T01:45:15.739Z,16.90
2018-07-20T01:47:44.484Z,17.00
2018-07-20T01:50:13.330Z,17.00
2018-07-20T01:52:42.133Z,17.00
2018-07-20T01:55:10.897Z,16.90
2018-07-20T01:57:43.744Z,16.80
2018-07-20T02:00:12.633Z,16.80
2018-07-20T02:02:41.401Z,16.80
2018-07-20T02:05:10.258Z,16.80
2018-07-20T02:07:39.009Z,16.70
2018-07-20T02:10:07.763Z,16.70
2018-07-20T02:12:36.529Z,16.60
2018-07-20T02:15:09.410Z,16.60
2018-07-20T02:17:42.105Z,16.50
2018-07-20T02:20:10.940Z,16.50
2018-07-20T02:22:39.757Z,16.50
2018-07-20T02:25:08.581Z,16.50
2018-07-20T02:27:37.414Z,16.50
2018-07-20T02:30:06.566Z,16.40
2018-07-20T02:32:35.389Z,16.40
2018-07-20T02:35:10.099Z,16.40
2018-07-20T02:37:38.825Z,16.40
2018-07-20T02:40:07.521Z,16.30
2018-07-20T02:42:36.321Z,16.30
2018-07-20T02:45:05.598Z,16.30
2018-07-20T02:47:34.392Z,16.30
2018-07-20T02:50:03.217Z,16.30
2018-07-20T02:52:31.970Z,16.30
2018-07-20T02:55:00.861Z,16.20
2018-07-20T02:57:29.655Z,16.20
2018-07-20T02:59:58.433Z,16.20
2018-07-20T03:02:27.285Z,16.20
2018-07-20T03:04:56.039Z,16.20
2018-07-20T03:07:24.846Z,16.10
2018-07-20T03:09:53.649Z,16.10
2018-07-20T03:12:22.502Z,16.10
2018-07-20T03:14:51.429Z,16.10
2018-07-20T03:17:20.213Z,16.10
2018-07-20T03:19:53.090Z,16.10
2018-07-20T03:22:21.850Z,16.10
2018-07-20T03:24:50.717Z,16.10
2018-07-20T03:27:19.586Z,16.10
2018-07-20T03:29:48.325Z,16.10
2018-07-20T03:32:17.155Z,16.00
2018-07-20T03:34:45.933Z,16.00
2018-07-20T03:37:14.715Z,16.00
2018-07-20T03:39:43.549Z,16.00
2018-07-20T03:42:12.348Z,16.00
2018-07-20T03:44:41.132Z,16.00
2018-07-20T03:47:11.733Z,15.90
2018-07-20T03:49:40.609Z,15.90
2018-07-20T03:52:09.482Z,15.90
2018-07-20T03:54:38.282Z,15.90
2018-07-20T03:57:07.076Z,15.90
2018-07-20T03:59:35.851Z,15.90
2018-07-20T04:02:16.001Z,16.00
2018-07-20T04:04:44.768Z,16.00
2018-07-20T04:07:13.468Z,16.00
2018-07-20T04:09:42.243Z,16.00
2018-07-20T04:12:11.162Z,16.00
2018-07-20T04:14:39.957Z,16.00
2018-07-20T04:17:08.739Z,16.00
2018-07-20T04:22:22.581Z,16.10
2018-07-20T04:24:51.337Z,16.10
2018-07-20T04:27:20.177Z,16.10
2018-07-20T04:29:48.985Z,16.10
2018-07-20T04:32:17.750Z,16.20
2018-07-20T04:34:46.582Z,16.20
2018-07-20T04:37:15.442Z,16.20
2018-07-20T04:39:44.156Z,16.20
2018-07-20T04:42:12.984Z,16.30
2018-07-20T04:44:41.778Z,16.30
2018-07-20T04:47:10.550Z,16.30
2018-07-20T04:49:39.361Z,16.40
2018-07-20T04:52:08.136Z,16.40
2018-07-20T04:54:36.929Z,16.40
2018-07-20T04:57:05.772Z,16.50
2018-07-20T04:59:35.725Z,16.50
2018-07-20T05:02:04.836Z,16.60
2018-07-20T05:04:33.573Z,16.60
2018-07-20T05:07:02.429Z,16.60
2018-07-20T05:11:59.597Z,16.70
2018-07-20T05:14:28.386Z,16.70
2018-07-20T05:16:57.203Z,16.80
2018-07-20T05:19:26.001Z,16.80
2018-07-20T05:21:54.861Z,16.80
2018-07-20T05:24:23.673Z,16.90
2018-07-20T05:26:52.550Z,16.90
2018-07-20T05:29:21.306Z,17.00
2018-07-20T05:31:50.156Z,17.10
2018-07-20T05:34:18.892Z,17.10
2018-07-20T05:36:47.642Z,17.10
2018-07-20T05:39:16.352Z,17.20
2018-07-20T05:41:45.138Z,17.30
2018-07-20T05:44:13.981Z,17.40
2018-07-20T05:46:42.734Z,17.50
2018-07-20T05:49:11.553Z,17.60
2018-07-20T05:51:40.334Z,17.80
2018-07-20T05:54:09.141Z,17.90
2018-07-20T05:56:37.889Z,18.00
2018-07-20T05:59:06.775Z,18.10
2018-07-20T06:01:35.583Z,18.10
2018-07-20T06:04:04.428Z,18.20
2018-07-20T06:06:33.181Z,18.30
2018-07-20T06:09:02.029Z,18.30
2018-07-20T06:11:30.869Z,18.40
2018-07-20T06:13:59.583Z,18.50
2018-07-20T06:16:28.353Z,18.50
2018-07-20T06:19:02.330Z,18.60
2018-07-20T06:21:31.147Z,18.60
2018-07-20T06:26:28.259Z,18.70
2018-07-20T06:28:59.138Z,18.70
2018-07-20T06:31:32.914Z,18.80
2018-07-20T06:34:01.685Z,18.80
2018-07-20T06:38:58.987Z,18.90
2018-07-20T06:41:28.841Z,19.00
2018-07-20T06:43:57.580Z,19.00
2018-07-20T06:46:26.429Z,19.20
2018-07-20T06:48:55.249Z,19.20
2018-07-20T06:51:24.047Z,19.30
2018-07-20T06:53:52.933Z,19.40
2018-07-20T06:56:21.748Z,19.60
2018-07-20T06:58:50.566Z,19.60
2018-07-20T07:01:19.789Z,19.70
2018-07-20T07:06:17.136Z,19.70
2018-07-20T07:08:45.849Z,19.70
2018-07-20T07:11:14.673Z,19.70
2018-07-20T07:13:45.737Z,19.70
2018-07-20T07:16:14.595Z,19.80
2018-07-20T07:18:43.513Z,19.90
2018-07-20T07:21:18.373Z,19.90
2018-07-20T07:23:47.218Z,20.00
2018-07-20T07:26:16.202Z,20.10
2018-07-20T07:28:45.022Z,20.10
2018-07-20T07:31:24.701Z,20.20
2018-07-20T07:33:53.490Z,20.30
2018-07-20T07:36:22.229Z,20.50
2018-07-20T07:38:59.938Z,20.60
2018-07-20T07:41:28.796Z,20.70
2018-07-20T07:44:02.712Z,20.80
2018-07-20T07:46:31.626Z,20.90
2018-07-20T07:49:00.430Z,21.00
2018-07-20T07:51:29.153Z,21.10
2018-07-20T07:56:55.141Z,21.20
2018-07-20T07:59:28.954Z,21.30
2018-07-20T08:01:57.741Z,21.40
2018-07-20T08:04:33.339Z,21.50
2018-07-20T08:07:02.349Z,21.50
2018-07-20T08:09:39.909Z,21.70
2018-07-20T08:12:08.624Z,21.70
2018-07-20T08:14:37.430Z,21.80
2018-07-20T08:17:09.389Z,21.90
2018-07-20T08:19:38.190Z,22.00
2018-07-20T08:22:07.018Z,22.10
2018-07-20T08:24:35.777Z,22.20
2018-07-20T08:27:04.606Z,22.20
2018-07-20T08:29:33.414Z,22.30
2018-07-20T08:32:02.174Z,22.40
2018-07-20T08:34:30.974Z,22.50
2018-07-20T08:36:59.744Z,22.70
2018-07-20T08:39:28.454Z,22.80
2018-07-20T08:42:03.826Z,22.90
2018-07-20T08:44:32.601Z,23.00
2018-07-20T08:47:01.383Z,23.00
2018-07-20T08:49:30.237Z,23.10
2018-07-20T08:51:59.134Z,23.10
2018-07-20T08:54:27.958Z,23.30
2018-07-20T08:56:56.816Z,23.40
2018-07-20T08:59:25.658Z,23.40
2018-07-20T09:01:54.478Z,23.50
2018-07-20T09:04:23.313Z,23.60
2018-07-20T09:06:52.152Z,23.70
2018-07-20T09:09:20.876Z,23.90
2018-07-20T09:11:49.746Z,24.00
2018-07-20T09:14:18.570Z,24.20
2018-07-20T09:16:47.418Z,24.20
2018-07-20T09:19:16.259Z,24.20
2018-07-20T09:21:45.073Z,24.20
2018-07-20T09:27:05.145Z,24.40
2018-07-20T09:29:33.953Z,24.50
2018-07-20T09:32:12.933Z,24.50
2018-07-20T09:34:41.733Z,24.60
2018-07-20T09:37:10.525Z,24.70
2018-07-20T09:39:42.645Z,24.80
2018-07-20T09:42:11.858Z,24.80
2018-07-20T09:44:40.683Z,24.90
2018-07-20T09:47:09.490Z,24.90
2018-07-20T09:49:38.309Z,25.00
2018-07-20T09:52:07.165Z,25.10
2018-07-20T09:54:35.969Z,25.20
2018-07-20T09:57:04.872Z,25.30
2018-07-20T09:59:33.946Z,25.30
2018-07-20T10:02:02.757Z,25.40
2018-07-20T10:04:31.619Z,25.40
2018-07-20T10:07:00.427Z,25.50
2018-07-20T10:09:29.237Z,25.50
2018-07-20T10:12:09.474Z,25.60
2018-07-20T10:14:38.313Z,25.70
2018-07-20T10:17:07.237Z,25.80
2018-07-20T10:19:40.225Z,25.90
2018-07-20T10:22:09.113Z,26.00
2018-07-20T10:24:37.970Z,26.10
2018-07-20T10:27:06.825Z,26.10
2018-07-20T10:29:35.581Z,26.30
2018-07-20T10:32:04.473Z,26.30
2018-07-20T10:34:33.366Z,26.30
2018-07-20T10:37:11.034Z,26.40
2018-07-20T10:39:39.873Z,26.50
2018-07-20T10:42:08.725Z,26.60
2018-07-20T10:44:37.556Z,26.70
2018-07-20T10:47:06.323Z,26.80
2018-07-20T10:49:35.152Z,26.90
2018-07-20T10:52:04.158Z,26.90
2018-07-20T10:54:32.933Z,26.90
2018-07-20T10:57:01.802Z,27.00
2018-07-20T10:59:35.793Z,27.00
2018-07-20T11:02:13.570Z,27.10
2018-07-20T11:04:44.865Z,27.20
2018-07-20T11:07:13.693Z,27.30
2018-07-20T11:09:46.025Z,27.20
2018-07-20T11:12:14.789Z,27.30
2018-07-20T11:14:47.597Z,27.40
2018-07-20T11:17:16.385Z,27.40
2018-07-20T11:19:52.796Z,27.50
2018-07-20T11:22:21.641Z,27.50
2018-07-20T11:24:50.335Z,27.50
2018-07-20T11:27:19.169Z,27.50
2018-07-20T11:29:48.014Z,27.60
2018-07-20T11:32:16.984Z,27.70
2018-07-20T11:34:45.806Z,27.90
2018-07-20T11:37:14.630Z,28.00
2018-07-20T11:39:43.357Z,28.20
2018-07-20T11:42:12.226Z,28.30
2018-07-20T11:44:41.053Z,28.30
2018-07-20T11:47:09.877Z,28.10
2018-07-20T11:49:38.675Z,28.10
2018-07-20T11:52:07.449Z,28.10
2018-07-20T11:54:38.369Z,28.10
2018-07-20T11:57:07.178Z,28.30
2018-07-20T11:59:36.225Z,28.30
2018-07-20T12:02:05.023Z,28.40
2018-07-20T12:04:37.772Z,28.50
2018-07-20T12:07:06.506Z,28.50
2018-07-20T12:09:35.261Z,28.50
2018-07-20T12:12:04.090Z,28.40
2018-07-20T12:14:34.046Z,28.50
2018-07-20T12:17:02.845Z,28.60
2018-07-20T12:19:31.618Z,28.70
2018-07-20T12:22:04.292Z,28.70
2018-07-20T12:24:33.130Z,28.70
2018-07-20T12:27:02.007Z,28.80
2018-07-20T12:29:30.986Z,28.80
2018-07-20T12:32:02.347Z,28.80
2018-07-20T12:34:31.156Z,28.80
2018-07-20T12:36:59.950Z,28.80
2018-07-20T12:39:28.689Z,28.90
2018-07-20T12:42:09.401Z,28.90
2018-07-20T12:44:38.212Z,28.90
2018-07-20T12:47:07.006Z,29.00
2018-07-20T12:49:37.864Z,29.00
2018-07-20T12:52:06.654Z,29.00
2018-07-20T12:54:35.449Z,29.10
2018-07-20T12:57:08.565Z,29.30
2018-07-20T12:59:37.366Z,29.40
2018-07-20T13:02:06.222Z,29.40
2018-07-20T13:04:35.010Z,29.50
2018-07-20T13:07:03.766Z,29.60
2018-07-20T13:09:32.581Z,29.60
2018-07-20T13:12:01.435Z,29.70
2018-07-20T13:14:30.120Z,29.80
2018-07-20T13:16:58.915Z,29.90
2018-07-20T13:19:27.873Z,30.00
2018-07-20T13:21:56.762Z,30.00
2018-07-20T13:24:25.638Z,30.20
2018-07-20T13:26:54.540Z,30.30
2018-07-20T13:29:23.405Z,30.40
2018-07-20T13:31:52.251Z,30.50
2018-07-20T13:34:21.038Z,30.50
2018-07-20T13:36:49.881Z,30.50
2018-07-20T13:39:18.637Z,30.50
2018-07-20T13:41:48.485Z,30.40
2018-07-20T13:44:17.241Z,30.40
2018-07-20T13:46:46.045Z,30.40
2018-07-20T13:49:14.826Z,30.50
2018-07-20T13:51:43.833Z,30.60
2018-07-20T13:54:12.521Z,30.60
2018-07-20T13:56:41.297Z,30.60
2018-07-20T13:59:10.097Z,30.60
2018-07-20T14:01:38.885Z,30.50
2018-07-20T14:04:07.778Z,30.50
2018-07-20T14:06:36.581Z,30.50
2018-07-20T14:09:07.499Z,30.40
2018-07-20T14:11:36.265Z,30.40
2018-07-20T14:14:05.034Z,30.50
2018-07-20T14:16:33.889Z,30.50
2018-07-20T14:19:03.822Z,30.50
2018-07-20T14:21:32.697Z,30.60
2018-07-20T14:24:01.587Z,30.70
2018-07-20T14:26:30.562Z,30.70
2018-07-20T14:28:59.275Z,30.80
2018-07-20T14:31:28.102Z,30.90
2018-07-20T14:34:00.792Z,30.90
2018-07-20T14:36:29.673Z,31.00
2018-07-20T14:38:58.501Z,31.00
2018-07-20T14:41:27.389Z,31.10
2018-07-20T14:43:58.300Z,31.10
2018-07-20T14:46:27.097Z,31.20
2018-07-20T14:48:55.885Z,31.20
2018-07-20T14:51:24.711Z,31.20
2018-07-20T14:56:21.978Z,31.10
2018-07-20T14:58:50.789Z,31.10
2018-07-20T15:01:19.533Z,31.10
2018-07-20T15:03:48.553Z,31.10
2018-07-20T15:06:17.289Z,31.20
2018-07-20T15:08:46.050Z,31.20
2018-07-20T15:11:19.826Z,31.30
2018-07-20T15:13:48.665Z,31.40
2018-07-20T15:16:17.401Z,31.40
2018-07-20T15:18:46.279Z,31.30
2018-07-20T15:21:15.070Z,31.40
2018-07-20T15:23:43.822Z,31.50
2018-07-20T15:26:12.697Z,31.60
2018-07-20T15:28:42.617Z,31.80
2018-07-20T15:31:11.474Z,31.70
2018-07-20T15:33:40.289Z,31.60
2018-07-20T15:38:52.532Z,31.60
2018-07-20T15:41:21.294Z,31.50
2018-07-20T15:43:50.176Z,31.50
2018-07-20T15:46:19.112Z,31.50
2018-07-20T15:48:49.869Z,31.50
2018-07-20T15:54:10.918Z,31.80
2018-07-20T15:56:41.132Z,32.10
2018-07-20T15:59:09.929Z,32.20
2018-07-20T16:01:40.762Z,32.40
2018-07-20T16:04:09.541Z,32.60
2018-07-20T16:06:38.269Z,32.80
2018-07-20T16:09:10.189Z,33.70
2018-07-20T16:11:39.025Z,35.00
2018-07-20T16:14:07.719Z,35.50
2018-07-20T16:16:36.668Z,35.60
2018-07-20T16:19:07.939Z,35.80
2018-07-20T16:21:36.777Z,36.60
2018-07-20T16:24:05.793Z,37.10
2018-07-20T16:26:34.527Z,36.70
2018-07-20T16:29:06.209Z,36.00
2018-07-20T16:31:34.984Z,35.80
2018-07-20T16:34:03.861Z,36.20
2018-07-20T16:36:32.629Z,35.80
2018-07-20T16:39:01.862Z,35.10
2018-07-20T16:41:30.753Z,34.40
2018-07-20T16:43:59.704Z,33.80
2018-07-20T16:46:28.551Z,33.30
2018-07-20T16:48:57.317Z,33.00
2018-07-20T16:51:26.216Z,32.90
2018-07-20T16:53:55.062Z,33.40
2018-07-20T16:56:25.190Z,34.40
2018-07-20T16:58:54.390Z,35.30
2018-07-20T17:01:23.365Z,36.50
2018-07-20T17:03:52.558Z,37.40
2018-07-20T17:06:21.281Z,38.40
2018-07-20T17:08:50.077Z,39.50
2018-07-20T17:11:26.480Z,40.20
2018-07-20T17:13:55.666Z,40.90
2018-07-20T17:16:25.005Z,41.10
2018-07-20T17:18:53.979Z,41.40
2018-07-20T17:21:22.757Z,41.00
2018-07-20T17:23:51.451Z,40.20
2018-07-20T17:26:24.790Z,40.50
2018-07-20T17:28:53.694Z,41.10
2018-07-20T17:31:23.347Z,41.70
2018-07-20T17:33:52.169Z,41.90
2018-07-20T17:36:20.973Z,41.70
2018-07-20T17:38:50.104Z,41.30
2018-07-20T17:41:19.341Z,41.00
2018-07-20T17:43:49.570Z,41.00
2018-07-20T17:46:18.444Z,41.40
2018-07-20T17:48:48.077Z,41.80
2018-07-20T17:51:16.888Z,41.90
2018-07-20T17:53:46.592Z,42.00
2018-07-20T17:56:15.413Z,42.00
2018-07-20T17:58:44.229Z,42.00
2018-07-20T18:01:18.998Z,41.80
2018-07-20T18:03:48.488Z,41.60
2018-07-20T18:06:17.297Z,41.40
2018-07-20T18:08:46.217Z,40.00
2018-07-20T18:11:15.182Z,38.60
2018-07-20T18:13:43.977Z,37.30
2018-07-20T18:16:12.858Z,36.20
2018-07-20T18:18:41.600Z,35.30
2018-07-20T18:21:10.485Z,34.70
2018-07-20T18:23:39.310Z,34.20
2018-07-20T18:26:08.058Z,33.80
2018-07-20T18:28:37.067Z,33.40
2018-07-20T18:31:06.110Z,33.00
2018-07-20T18:36:03.350Z,32.30
2018-07-20T18:38:32.249Z,32.00
2018-07-20T18:41:01.113Z,31.70
2018-07-20T18:43:29.906Z,31.50
2018-07-20T18:45:58.705Z,31.20
2018-07-20T18:48:27.560Z,31.00
2018-07-20T18:50:56.348Z,30.80
2018-07-20T18:53:25.141Z,30.60
2018-07-20T18:55:54.051Z,30.40
2018-07-20T18:58:22.853Z,30.20
2018-07-20T19:03:57.386Z,29.70
2018-07-20T19:06:27.045Z,29.40
2018-07-20T19:14:18.703Z,28.80
2018-07-20T19:16:47.484Z,28.60
2018-07-20T19:22:07.337Z,28.30
2018-07-20T19:24:36.132Z,28.10
2018-07-20T19:29:47.822Z,27.80
2018-07-20T19:32:17.661Z,27.60
2018-07-20T19:34:46.405Z,27.50
2018-07-20T19:37:15.260Z,27.30
2018-07-20T19:39:44.033Z,27.30
2018-07-20T19:42:12.870Z,27.10
2018-07-20T19:44:52.766Z,27.00
2018-07-20T19:47:21.507Z,26.90
2018-07-20T19:49:50.242Z,26.90
2018-07-20T19:52:29.030Z,26.70
2018-07-20T19:54:57.737Z,26.50
2018-07-20T19:57:26.646Z,26.40
2018-07-20T19:59:55.495Z,26.40
2018-07-20T20:02:24.273Z,26.40
2018-07-20T20:04:53.373Z,26.30
2018-07-20T20:07:29.205Z,26.30
2018-07-20T20:10:15.421Z,26.30
2018-07-20T20:12:51.182Z,26.20
2018-07-20T20:15:20.077Z,26.10
2018-07-20T20:17:49.010Z,26.10
2018-07-20T20:20:17.921Z,26.10
2018-07-20T20:22:46.674Z,26.00
2018-07-20T20:25:15.593Z,26.00
2018-07-20T20:27:44.470Z,25.80
2018-07-20T20:30:19.517Z,25.80
2018-07-20T20:32:48.405Z,25.70
2018-07-20T20:35:17.250Z,25.60
2018-07-20T20:37:48.752Z,25.50
2018-07-20T20:40:17.517Z,25.40
2018-07-20T20:42:46.378Z,25.30
2018-07-20T20:45:15.209Z,25.20
2018-07-20T20:47:47.109Z,25.10
2018-07-20T20:50:16.009Z,25.00
2018-07-20T20:52:44.813Z,25.00
2018-07-20T20:55:13.697Z,24.90
2018-07-20T20:57:42.558Z,24.90
2018-07-20T21:00:11.366Z,24.90
2018-07-20T21:02:40.218Z,24.80
2018-07-20T21:05:09.041Z,24.80
2018-07-20T21:07:37.875Z,24.70
2018-07-20T21:10:06.784Z,24.70
2018-07-20T21:12:35.598Z,24.70
2018-07-20T21:15:04.526Z,24.60
2018-07-20T21:17:33.301Z,24.60
2018-07-20T21:20:10.805Z,24.60
2018-07-20T21:22:39.528Z,24.50
2018-07-20T21:25:14.569Z,24.40
2018-07-20T21:27:43.287Z,24.40
2018-07-20T21:30:12.119Z,24.30
2018-07-20T21:32:40.878Z,24.20
2018-07-20T21:35:09.689Z,24.20
2018-07-20T21:37:38.454Z,24.10
2018-07-20T21:40:07.216Z,24.10
2018-07-20T21:42:36.014Z,24.10
2018-07-20T21:45:05.122Z,24.00
2018-07-20T21:47:33.961Z,24.00
2018-07-20T21:50:02.817Z,24.00
2018-07-20T21:52:31.575Z,24.00
2018-07-20T21:55:00.426Z,23.90
2018-07-20T21:57:29.109Z,23.90
2018-07-20T21:59:57.926Z,23.80
2018-07-20T22:02:26.730Z,23.80
2018-07-20T22:04:55.501Z,23.80
2018-07-20T22:07:24.297Z,23.70
2018-07-20T22:09:53.093Z,23.60
2018-07-20T22:12:21.912Z,23.60
2018-07-20T22:14:50.687Z,23.60
2018-07-20T22:17:19.521Z,23.60
2018-07-20T22:19:48.369Z,23.50
2018-07-20T22:22:17.056Z,23.60
2018-07-20T22:27:14.337Z,23.50
2018-07-20T22:29:43.153Z,23.50
2018-07-20T22:32:11.909Z,23.40
2018-07-20T22:34:40.849Z,23.40
2018-07-20T22:37:09.697Z,23.40
2018-07-20T22:39:38.449Z,23.40
2018-07-20T22:42:07.286Z,23.40
2018-07-20T22:44:36.033Z,23.30
2018-07-20T22:47:04.853Z,23.20
2018-07-20T22:49:33.742Z,23.00
2018-07-20T22:52:02.530Z,22.80
2018-07-20T22:54:31.386Z,22.80
2018-07-20T22:57:00.126Z,22.90
2018-07-20T22:59:28.976Z,22.90
2018-07-20T23:01:57.753Z,22.90
2018-07-20T23:04:26.591Z,23.00
2018-07-20T23:06:55.663Z,23.00
2018-07-20T23:09:24.577Z,23.00
2018-07-20T23:11:53.341Z,23.00
2018-07-20T23:14:22.109Z,23.00
2018-07-20T23:16:50.841Z,23.00
2018-07-20T23:19:19.649Z,22.90
2018-07-20T23:21:48.449Z,22.90
2018-07-20T23:24:19.299Z,22.90
2018-07-20T23:26:48.090Z,22.80
2018-07-20T23:29:16.993Z,22.80
2018-07-20T23:31:45.817Z,22.80
2018-07-20T23:36:43.086Z,22.80
2018-07-20T23:39:11.866Z,22.80
2018-07-20T23:41:40.695Z,22.80
2018-07-20T23:44:09.875Z,22.80
2018-07-20T23:46:38.757Z,22.80
2018-07-20T23:49:07.529Z,22.70
2018-07-20T23:51:36.305Z,22.70
2018-07-20T23:54:05.105Z,22.60
2018-07-20T23:56:33.837Z,22.60
2018-07-20T23:59:02.737Z,22.60
